Time;durP1;ratioP1;P1;durP2;ratioP2;P2;SDS_P1;SDS_P2;PMS_P1;PMS_P2;Temp;Humidity;BMP_temperature;BMP_pressure;BME280_temperature;BME280_humidity;BME280_pressure;Samples;Min_cycle;Max_cycle;Signal;HPM_P1;HPM_P2
2021/04/27 00:13:08;;;;;;;5.70;2.40;;;;;;;16.66;40.60;101631.44;6393954;22;20032;-81
2021/04/27 00:19:22;;;;;;;8.38;2.50;;;;;;;16.63;40.57;101618.41;6379041;22;20036;-79
2021/04/27 00:28:54;;;;;;;4.82;1.98;;;;;;;16.63;40.43;101614.94;6303635;22;20029;-79
2021/04/27 00:41:22;;;;;;;3.80;1.90;;;;;;;16.61;40.42;101593.25;6368413;22;20052;-80
2021/04/27 01:39:50;;;;;;;4.95;1.90;;;;;;;16.79;40.46;101540.56;6394955;22;20017;-78
2021/04/27 01:42:15;;;;;;;3.92;2.10;;;;;;;16.78;40.52;101537.06;6399032;22;20017;-79
2021/04/27 01:44:44;;;;;;;5.22;2.25;;;;;;;16.81;40.58;101528.44;6371848;22;19994;-78
2021/04/27 01:47:25;;;;;;;5.15;2.08;;;;;;;16.77;40.74;101532.75;6348957;22;20018;-77
2021/04/27 01:50:04;;;;;;;3.67;1.90;;;;;;;16.76;40.76;101535.31;6361625;22;20053;-80
2021/04/27 01:52:52;;;;;;;4.88;2.20;;;;;;;16.75;40.66;101529.25;6334121;22;20018;-79
2021/04/27 01:55:36;;;;;;;4.10;1.85;;;;;;;16.69;40.62;101520.56;6339091;22;20019;-80
2021/04/27 01:58:07;;;;;;;5.65;2.15;;;;;;;16.73;40.57;101523.19;6341185;22;20003;-80
2021/04/27 02:00:34;;;;;;;4.03;1.88;;;;;;;16.73;40.85;101520.59;6356449;22;20019;-80
2021/04/27 02:07:06;;;;;;;4.35;2.05;;;;;;;16.70;40.52;101517.09;6332285;22;20063;-80
2021/04/27 02:09:35;;;;;;;3.78;1.67;;;;;;;16.66;40.72;101518.81;6302670;22;20025;-80
2021/04/27 02:12:04;;;;;;;4.80;2.10;;;;;;;16.61;40.84;101508.41;6327956;22;20000;-80
2021/04/27 02:30:34;;;;;;;3.17;1.70;;;;;;;16.57;40.63;101497.97;6297368;22;20484;-79
2021/04/27 02:33:01;;;;;;;4.38;1.70;;;;;;;16.58;40.63;101495.38;6291246;22;20011;-80
2021/04/27 02:35:33;;;;;;;4.53;1.77;;;;;;;16.56;40.65;101494.50;6242367;22;20004;-80
2021/04/27 02:42:03;;;;;;;3.47;1.60;;;;;;;16.59;40.84;101499.75;6388541;22;20041;-80
2021/04/27 02:48:29;;;;;;;4.15;1.63;;;;;;;16.59;40.55;101483.25;6387290;22;20018;-80
2021/04/27 02:51:05;;;;;;;4.85;1.63;;;;;;;16.53;40.50;101478.91;6363711;22;20009;-79
2021/04/27 02:53:37;;;;;;;3.65;1.60;;;;;;;16.58;40.43;101478.94;6386605;22;20002;-80
2021/04/27 02:56:04;;;;;;;4.68;1.80;;;;;;;16.53;40.64;101473.72;6392232;22;19989;-80
2021/04/27 02:58:33;;;;;;;3.22;1.30;;;;;;;16.52;40.48;101477.16;6370389;22;20020;-80
2021/04/27 03:21:51;;;;;;;5.35;1.50;;;;;;;16.51;40.33;101444.25;6265505;22;20941;-78
2021/04/27 03:24:16;;;;;;;4.25;1.80;;;;;;;16.56;40.46;101452.94;6359686;22;20033;-78
2021/04/27 03:26:42;;;;;;;2.92;1.40;;;;;;;16.54;40.16;101438.19;6359035;22;20014;-78
2021/04/27 03:31:55;;;;;;;2.63;1.70;;;;;;;16.58;40.08;101442.56;6386807;22;20345;-79
2021/04/27 03:34:22;;;;;;;5.32;1.80;;;;;;;16.56;40.10;101445.13;6385116;22;20012;-79
2021/04/27 03:36:48;;;;;;;4.72;1.80;;;;;;;16.52;40.38;101451.19;6384263;22;20002;-78
2021/04/27 03:39:17;;;;;;;3.25;1.98;;;;;;;16.51;40.05;101444.25;6399262;22;20010;-79
2021/04/27 03:49:22;;;;;;;3.70;1.55;;;;;;;16.51;39.97;101433.88;6392693;22;20014;-80
2021/04/27 03:51:49;;;;;;;3.83;2.00;;;;;;;16.51;40.16;101430.41;6386536;22;20018;-80
2021/04/27 03:58:34;;;;;;;3.67;1.85;;;;;;;16.43;40.31;101431.22;6336137;22;20013;-79
2021/04/27 04:01:08;;;;;;;4.28;1.90;;;;;;;16.49;40.00;101430.41;6335743;22;20059;-80
2021/04/27 04:06:37;;;;;;;3.38;1.67;;;;;;;16.61;40.05;101417.47;6362052;22;20034;-81
2021/04/27 04:18:38;;;;;;;2.78;1.52;;;;;;;16.64;40.09;101414.00;6363433;22;20040;-80
2021/04/27 04:21:04;;;;;;;4.45;1.83;;;;;;;16.61;40.43;101409.66;6358980;22;20022;-80
2021/04/27 04:23:30;;;;;;;4.13;1.50;;;;;;;16.67;39.89;101416.59;6358068;22;20349;-80
2021/04/27 04:25:56;;;;;;;4.15;1.70;;;;;;;16.66;40.09;101418.34;6330581;22;19999;-79
2021/04/27 04:28:23;;;;;;;2.85;1.50;;;;;;;16.66;40.02;101415.75;6325550;22;20098;-80
2021/04/27 04:30:49;;;;;;;2.72;1.48;;;;;;;16.69;39.94;101417.47;6350424;22;20011;-80
2021/04/27 04:33:14;;;;;;;2.00;1.30;;;;;;;16.70;40.41;101413.13;6323983;22;20037;-80
2021/04/27 04:36:01;;;;;;;3.13;1.35;;;;;;;16.72;40.30;101406.22;6328793;22;20168;-80
2021/04/27 05:48:31;;;;;;;4.30;1.40;;;;;;;16.94;39.25;101396.78;6284575;22;21396;31
2021/04/27 05:51:16;;;;;;;3.72;1.38;;;;;;;16.95;39.17;101395.94;6266009;23;20012;-79
2021/04/27 05:57:34;;;;;;;1.90;1.20;;;;;;;17.10;38.70;101408.94;6265062;23;20088;-79
2021/04/27 06:03:35;;;;;;;2.38;1.40;;;;;;;18.02;36.50;101413.28;6389011;22;20403;-80
2021/04/27 06:06:04;;;;;;;2.63;1.27;;;;;;;18.03;36.65;101417.63;6309391;22;20083;-78
2021/04/27 06:08:34;;;;;;;2.58;1.30;;;;;;;17.75;37.59;101412.44;6294940;22;20004;-78
2021/04/27 06:13:53;;;;;;;2.42;1.27;;;;;;;17.64;37.97;101412.44;6360707;22;19999;-79
2021/04/27 06:16:27;;;;;;;3.75;1.58;;;;;;;17.65;37.87;101415.91;6271085;22;20008;-80
2021/04/27 06:22:33;;;;;;;3.13;1.75;;;;;;;17.92;37.20;101414.16;6270650;23;20031;-81
2021/04/27 06:24:59;;;;;;;3.75;1.55;;;;;;;18.06;36.99;101415.03;6264150;23;20030;-80
2021/04/27 06:30:46;;;;;;;3.00;1.50;;;;;;;18.89;35.89;101392.09;6261272;23;20020;-90
2021/04/27 06:33:12;;;;;;;2.03;1.30;;;;;;;19.17;35.15;101381.50;6261340;23;20550;-89
2021/04/27 06:35:38;;;;;;;3.67;1.50;;;;;;;19.39;35.08;101389.16;6262789;23;20004;-86
2021/04/27 06:38:03;;;;;;;4.15;1.50;;;;;;;19.45;34.68;101386.50;6265069;23;20011;-91
2021/04/27 06:40:29;;;;;;;2.67;1.27;;;;;;;19.58;34.85;101384.66;6262124;23;20012;-91
2021/04/27 06:42:54;;;;;;;3.08;1.40;;;;;;;19.71;34.65;101394.13;6228267;23;20020;-90
2021/04/27 06:45:21;;;;;;;12.27;4.32;;;;;;;20.13;36.24;101381.47;6240201;22;20005;-87
2021/04/27 06:47:46;;;;;;;27.30;9.05;;;;;;;20.54;36.48;101375.75;6293593;22;20011;-89
2021/04/27 06:50:20;;;;;;;33.67;10.80;;;;;;;20.67;36.91;101371.25;6334901;22;19999;-83
2021/04/27 06:52:53;;;;;;;28.05;9.25;;;;;;;20.78;36.64;101375.47;6308613;22;19995;-89
2021/04/27 06:58:43;;;;;;;22.65;7.95;;;;;;;20.96;36.41;101368.19;6335940;22;20050;-83
2021/04/27 07:01:08;;;;;;;20.77;7.63;;;;;;;20.96;36.21;101376.03;6357039;22;20010;-84
2021/04/27 07:03:36;;;;;;;19.55;6.75;;;;;;;21.00;36.24;101370.78;6371256;22;20047;-82
2021/04/27 07:12:46;;;;;;;13.38;4.95;;;;;;;21.13;35.45;101367.06;6363344;22;20017;-84
2021/04/27 07:15:12;;;;;;;10.02;4.72;;;;;;;21.10;35.57;101357.53;6308898;22;20014;-80
2021/04/27 07:17:37;;;;;;;12.55;4.28;;;;;;;21.06;35.23;101357.59;6329165;22;19998;-81
2021/04/27 07:20:04;;;;;;;13.00;4.45;;;;;;;21.00;35.54;101355.06;6398374;22;19995;-81
2021/04/27 07:22:31;;;;;;;9.27;4.25;;;;;;;21.09;35.11;101362.78;6370986;22;19986;-83
2021/04/27 07:27:57;;;;;;;7.30;3.88;;;;;;;21.28;34.33;101366.81;6377473;22;20022;-82
2021/04/27 07:30:23;;;;;;;7.18;3.70;;;;;;;21.04;34.79;101362.84;6341640;22;20019;-84
2021/04/27 07:32:49;;;;;;;6.80;3.70;;;;;;;20.98;35.02;101351.63;6336146;22;20019;-82
2021/04/27 07:37:50;;;;;;;7.00;3.50;;;;;;;21.10;34.15;101341.81;6339487;22;20029;-81
2021/04/27 07:42:50;;;;;;;8.18;2.92;;;;;;;21.10;34.16;101346.16;6363127;22;20015;-83
2021/04/27 07:45:16;;;;;;;6.93;3.03;;;;;;;21.21;33.84;101338.16;6378040;22;20001;-81
2021/04/27 07:47:43;;;;;;;6.57;3.30;;;;;;;21.10;33.95;101338.31;6394436;22;20062;-81
2021/04/27 07:50:11;;;;;;;6.10;3.03;;;;;;;21.01;34.25;101333.25;6394117;22;20014;-82
2021/04/27 07:52:39;;;;;;;4.80;3.25;;;;;;;21.11;32.65;101334.84;6392520;22;20002;-82
2021/04/27 07:55:07;;;;;;;5.40;2.53;;;;;;;21.11;34.30;101329.59;6359116;22;20082;-81
2021/04/27 07:57:33;;;;;;;8.57;3.03;;;;;;;21.07;34.26;101334.00;6338462;22;19991;-83
2021/04/27 07:59:59;;;;;;;5.80;2.85;;;;;;;21.02;33.66;101338.47;6338602;22;19983;-83
2021/04/27 08:02:24;;;;;;;5.63;3.00;;;;;;;20.85;34.35;101335.25;6339261;22;20062;-82
2021/04/27 08:07:25;;;;;;;4.70;2.83;;;;;;;20.75;35.18;101335.38;6355521;22;20031;-81
2021/04/27 08:09:50;;;;;;;6.30;3.03;;;;;;;20.70;34.41;101334.56;6339157;22;20036;-83
2021/04/27 08:14:51;;;;;;;5.53;2.45;;;;;;;20.60;35.55;101335.63;6364886;22;20011;-84
2021/04/27 08:17:17;;;;;;;6.35;2.58;;;;;;;20.53;36.24;101326.97;6362174;22;20018;-83
2021/04/27 08:19:42;;;;;;;6.20;2.75;;;;;;;20.59;36.63;101327.78;6334871;22;20014;-90
2021/04/27 08:22:08;;;;;;;4.60;2.83;;;;;;;20.59;36.66;101317.31;6360837;22;20003;-87
2021/04/27 08:28:05;;;;;;;10.10;3.22;;;;;;;20.27;35.24;101321.19;6363596;22;20109;-85
2021/04/27 08:30:32;;;;;;;11.80;2.90;;;;;;;20.06;35.20;101323.22;6360119;22;19999;-91
2021/04/27 08:32:58;;;;;;;4.93;2.70;;;;;;;20.01;35.39;101325.03;6290654;22;20013;-90
2021/04/27 08:35:24;;;;;;;7.57;2.70;;;;;;;19.99;35.54;101318.97;6343704;22;20006;-92
2021/04/27 08:37:49;;;;;;;9.45;3.25;;;;;;;19.89;35.48;101317.31;6315798;22;20330;-88
2021/04/27 08:40:16;;;;;;;6.70;2.72;;;;;;;19.93;35.68;101311.19;6341739;22;20006;-89
2021/04/27 08:42:46;;;;;;;6.78;2.85;;;;;;;19.77;35.10;101318.31;6343091;22;19999;-91
2021/04/27 08:45:12;;;;;;;9.20;3.00;;;;;;;19.80;36.15;101313.06;6357568;22;19999;-82
2021/04/27 08:47:37;;;;;;;8.73;2.55;;;;;;;19.84;36.18;101303.47;6354748;22;20027;-92
2021/04/27 08:50:06;;;;;;;6.13;2.78;;;;;;;19.70;35.45;101314.91;6356830;22;20022;-91
2021/04/27 08:52:31;;;;;;;8.05;2.63;;;;;;;19.68;36.21;101300.97;6370629;22;20003;-89
2021/04/27 08:54:57;;;;;;;8.60;2.60;;;;;;;19.65;35.98;101307.97;6360761;22;20388;-88
2021/04/27 08:57:22;;;;;;;6.07;2.67;;;;;;;19.55;36.21;101309.81;6348608;22;20115;-92
2021/04/27 08:59:47;;;;;;;10.02;2.90;;;;;;;19.52;36.14;101302.88;6374676;22;20435;-90
2021/04/27 09:02:13;;;;;;;7.38;2.50;;;;;;;19.43;35.52;101302.13;6373172;22;20361;-82
2021/04/27 09:04:44;;;;;;;8.30;2.90;;;;;;;19.46;35.28;101307.28;6374089;22;20433;-83
2021/04/27 09:07:13;;;;;;;5.03;2.60;;;;;;;19.41;35.40;101301.28;6346213;22;19998;-84
2021/04/27 09:09:43;;;;;;;4.53;2.50;;;;;;;19.38;35.46;101296.94;6374978;22;20099;-83
2021/04/27 09:12:09;;;;;;;6.53;3.05;;;;;;;19.39;35.29;101295.19;6347517;22;20125;-82
2021/04/27 09:14:39;;;;;;;5.30;3.00;;;;;;;19.40;36.32;101299.53;6359788;22;20015;-83
2021/04/27 09:17:08;;;;;;;5.72;3.13;;;;;;;19.33;35.26;101293.50;6380767;22;20060;-81
2021/04/27 09:19:41;;;;;;;4.10;2.67;;;;;;;19.37;35.26;101299.56;6379089;22;19998;-85
2021/04/27 09:22:20;;;;;;;5.50;3.03;;;;;;;19.31;35.46;101296.16;6380603;22;20032;-81
2021/04/27 09:24:51;;;;;;;6.90;2.88;;;;;;;19.33;35.50;101289.13;6380647;22;20033;-81
2021/04/27 09:27:48;;;;;;;4.32;3.10;;;;;;;19.17;35.75;101289.31;6378918;22;20074;-82
2021/04/27 09:30:33;;;;;;;6.47;3.22;;;;;;;19.20;36.14;101279.69;6382702;22;20032;-82
2021/04/27 09:33:04;;;;;;;5.97;2.88;;;;;;;19.22;37.04;101280.56;6379228;22;20299;-82
2021/04/27 09:35:43;;;;;;;5.72;2.90;;;;;;;19.24;36.38;101277.94;6379642;22;20484;-81
2021/04/27 09:38:21;;;;;;;7.07;3.45;;;;;;;19.14;37.04;101271.06;6380161;22;20032;-81
2021/04/27 09:40:59;;;;;;;6.80;2.90;;;;;;;19.13;36.32;101265.00;6378734;22;20006;-82
2021/04/27 09:43:30;;;;;;;5.25;3.08;;;;;;;19.13;37.07;101269.34;6380168;22;20078;-81
2021/04/27 09:45:58;;;;;;;4.85;2.42;;;;;;;19.13;37.08;101261.53;6380547;22;20001;-82
2021/04/27 09:48:50;;;;;;;4.43;2.95;;;;;;;19.08;36.58;101257.22;6355470;22;20002;-83
2021/04/27 09:51:24;;;;;;;3.55;2.78;;;;;;;19.10;37.34;101265.03;6383092;22;20028;-81
2021/04/27 09:54:07;;;;;;;5.00;2.63;;;;;;;19.09;36.52;101266.75;6384139;22;20003;-82
2021/04/27 09:56:49;;;;;;;7.63;2.90;;;;;;;18.99;36.27;101256.41;6384137;22;20086;-82
2021/04/27 09:59:20;;;;;;;4.65;2.90;;;;;;;19.01;37.21;101260.75;6382504;22;20006;-82
2021/04/27 10:01:53;;;;;;;4.45;2.53;;;;;;;19.04;37.19;101252.03;6378257;22;20028;-81
2021/04/27 10:04:20;;;;;;;5.38;2.83;;;;;;;19.00;37.37;101258.16;6380083;22;20048;-81
2021/04/27 10:06:52;;;;;;;6.47;2.90;;;;;;;19.06;37.49;101251.13;6378976;22;20003;-81
2021/04/27 10:09:18;;;;;;;4.63;2.80;;;;;;;19.04;37.42;101249.44;6382346;22;20073;-81
2021/04/27 10:11:44;;;;;;;4.43;2.83;;;;;;;19.03;37.96;101245.97;6408373;22;20384;-81
2021/04/27 10:14:11;;;;;;;5.43;2.90;;;;;;;18.96;37.10;101244.28;6381472;22;20060;-81
2021/04/27 10:16:41;;;;;;;5.93;2.85;;;;;;;18.98;37.30;101246.88;6383663;22;19998;-78
2021/04/27 10:19:08;;;;;;;4.47;2.67;;;;;;;18.99;37.24;101238.16;6381623;22;19998;-79
2021/04/27 10:21:37;;;;;;;4.30;2.67;;;;;;;18.92;36.95;101242.56;6382274;22;20335;-83
2021/04/27 10:24:06;;;;;;;2.92;2.53;;;;;;;18.95;36.90;101234.72;6383411;22;19998;-82
2021/04/27 10:26:41;;;;;;;4.97;2.50;;;;;;;18.99;37.62;101231.22;6380118;22;20021;-81
2021/04/27 10:29:22;;;;;;;3.63;2.70;;;;;;;18.92;37.76;101216.47;6381306;22;20010;-81
2021/04/27 10:32:28;;;;;;;4.00;2.53;;;;;;;18.94;37.63;101225.16;6352564;22;20006;-81
2021/04/27 10:38:18;;;;;;;4.35;2.50;;;;;;;18.95;37.96;101223.44;6398377;22;20044;-83
2021/04/27 10:44:46;;;;;;;3.15;2.33;;;;;;;18.85;37.65;101207.84;6392151;22;20013;-84
2021/04/27 10:51:30;;;;;;;2.75;2.35;;;;;;;18.90;37.85;101210.41;6300138;22;20090;-82
2021/04/27 10:54:16;;;;;;;3.33;2.40;;;;;;;18.91;38.41;101204.34;6208124;23;20013;-79
2021/04/27 10:57:26;;;;;;;4.63;2.13;;;;;;;18.96;38.30;101212.13;6184088;23;19993;-79
2021/04/27 11:03:36;;;;;;;3.25;2.80;;;;;;;18.88;37.43;101188.72;6210693;23;20031;-82
2021/04/27 11:12:58;;;;;;;2.90;2.30;;;;;;;18.95;38.30;101190.41;6208789;23;20081;-79
2021/04/27 11:29:37;;;;;;;2.67;2.28;;;;;;;18.90;38.50;101166.09;6398778;22;20055;-82
2021/04/27 11:38:14;;;;;;;2.90;2.00;;;;;;;18.91;38.03;101158.25;6377206;22;20017;-80
2021/04/27 11:40:59;;;;;;;3.40;2.25;;;;;;;18.95;38.23;101164.31;6268932;22;20015;-80
2021/04/27 11:47:06;;;;;;;4.55;2.22;;;;;;;18.90;37.57;101163.47;6332254;22;20002;-81
2021/04/27 12:14:50;;;;;;;2.78;2.00;;;;;;;19.01;38.76;101138.19;6383439;22;20093;-91
2021/04/27 12:48:56;;;;;;;5.13;2.30;;;;;;;19.06;38.43;101120.72;6309382;22;20109;-88
2021/04/27 12:55:05;;;;;;;3.83;2.00;;;;;;;19.13;38.73;101105.00;6389906;22;20018;-80
2021/04/27 12:57:34;;;;;;;3.53;2.30;;;;;;;19.14;38.20;101104.09;6358913;22;20424;-80
2021/04/27 13:00:06;;;;;;;3.55;2.40;;;;;;;19.08;37.68;101100.69;6358751;22;19987;-80
2021/04/27 13:02:41;;;;;;;2.70;2.17;;;;;;;19.02;37.22;101090.34;6392308;22;19998;-84
2021/04/27 13:05:42;;;;;;;3.85;2.20;;;;;;;19.02;37.57;101094.69;6363055;22;20003;-83
2021/04/27 13:11:32;;;;;;;2.88;2.00;;;;;;;19.16;38.78;101084.94;6389741;22;20045;-85
2021/04/27 13:14:21;;;;;;;4.18;2.00;;;;;;;19.19;38.68;101084.91;6335637;22;20002;-82
2021/04/27 13:20:48;;;;;;;3.97;2.05;;;;;;;19.20;38.45;101078.81;6390435;22;20028;-83
2021/04/27 13:30:24;;;;;;;3.10;1.98;;;;;;;19.23;38.67;101078.78;6391517;22;20021;-82
2021/04/27 13:33:09;;;;;;;2.95;2.08;;;;;;;19.23;38.36;101075.31;6391305;22;20009;-79
2021/04/27 13:35:51;;;;;;;2.42;2.00;;;;;;;19.16;38.12;101065.81;6361226;22;20363;-80
2021/04/27 13:38:53;;;;;;;3.03;2.10;;;;;;;19.17;38.13;101071.03;6391706;22;20002;-81
2021/04/27 13:41:40;;;;;;;2.67;1.80;;;;;;;19.18;38.41;101070.13;6362524;22;20002;-81
2021/04/27 13:48:05;;;;;;;3.72;1.55;;;;;;;19.25;38.92;101069.19;6393641;22;20022;-80
2021/04/27 13:50:54;;;;;;;2.10;1.90;;;;;;;19.22;37.50;101065.75;6390932;22;20093;-81
2021/04/27 13:53:32;;;;;;;3.42;2.10;;;;;;;19.19;38.28;101056.22;6390423;22;19995;-80
2021/04/27 13:56:01;;;;;;;2.25;1.83;;;;;;;19.20;38.50;101047.50;6386983;22;20386;-80
2021/04/27 13:58:28;;;;;;;4.55;2.22;;;;;;;19.22;38.57;101034.44;6388775;22;20005;-80
2021/04/27 14:01:03;;;;;;;2.75;2.10;;;;;;;19.22;38.64;101040.53;6359848;22;20010;-81
2021/04/27 14:03:50;;;;;;;2.50;1.88;;;;;;;19.25;38.27;101037.00;6379972;22;20003;-82
2021/04/27 14:06:27;;;;;;;3.60;2.20;;;;;;;19.21;37.49;101027.50;6385515;22;20074;-81
2021/04/27 14:08:52;;;;;;;2.38;1.67;;;;;;;19.23;37.87;101025.75;6390590;22;19999;-81
2021/04/27 14:11:19;;;;;;;2.15;1.83;;;;;;;19.24;37.53;101025.72;6363976;22;20093;-83
2021/04/27 14:13:44;;;;;;;2.75;1.80;;;;;;;19.27;38.33;101030.91;6369266;22;20013;-81
2021/04/27 14:16:11;;;;;;;2.65;2.05;;;;;;;19.22;37.15;101016.19;6389071;22;20022;-81
2021/04/27 14:18:36;;;;;;;4.63;2.10;;;;;;;19.18;37.63;101017.09;6388698;22;20030;-82
2021/04/27 14:21:04;;;;;;;2.28;2.00;;;;;;;19.20;37.16;101013.59;6392085;22;20014;-81
2021/04/27 14:23:47;;;;;;;2.97;1.80;;;;;;;19.25;38.40;101014.41;6379965;22;20025;-89
2021/04/27 14:26:13;;;;;;;3.60;1.90;;;;;;;19.28;38.70;101011.75;6356354;22;20011;-83
2021/04/27 14:28:39;;;;;;;3.55;2.10;;;;;;;19.27;38.47;101011.75;6303589;22;20049;-90
2021/04/27 14:34:46;;;;;;;2.65;1.90;;;;;;;19.24;36.88;101007.44;6370764;22;20037;-80
2021/04/27 14:44:04;;;;;;;3.08;1.85;;;;;;;19.31;37.43;101001.28;6373703;22;20375;-80
2021/04/27 14:46:32;;;;;;;4.60;2.10;;;;;;;19.30;37.78;101001.28;6388726;22;20002;-81
2021/04/27 14:48:58;;;;;;;2.45;1.70;;;;;;;19.30;37.80;100996.94;6391771;22;20002;-80
2021/04/27 14:51:50;;;;;;;2.65;2.00;;;;;;;19.34;38.38;100995.16;6362593;22;20006;-81
2021/04/27 14:54:35;;;;;;;2.40;1.60;;;;;;;19.35;38.06;100990.78;6365823;22;20081;-80
2021/04/27 14:57:12;;;;;;;2.28;1.50;;;;;;;19.32;37.96;100987.34;6392262;22;20317;-82
2021/04/27 14:59:56;;;;;;;2.83;2.05;;;;;;;19.30;37.27;100994.31;6296826;22;20014;-81
2021/04/27 15:02:25;;;;;;;3.58;2.00;;;;;;;19.26;37.67;100981.34;6296514;22;20008;-82
2021/04/27 15:05:03;;;;;;;2.40;1.77;;;;;;;19.30;38.41;100978.66;6296630;22;20019;-84
2021/04/27 15:07:29;;;;;;;3.40;2.05;;;;;;;19.32;37.59;100991.69;6336322;22;20034;-83
2021/04/27 15:10:03;;;;;;;2.50;1.80;;;;;;;19.33;38.40;100977.75;6360825;22;20017;-81
2021/04/27 15:13:07;;;;;;;3.60;1.98;;;;;;;19.30;37.15;100991.72;6356996;22;20006;-84
2021/04/27 15:15:33;;;;;;;4.20;2.00;;;;;;;19.31;37.78;100985.63;6325872;22;20004;-82
2021/04/27 15:21:59;;;;;;;3.95;2.25;;;;;;;19.21;35.84;100978.81;6329250;22;20067;-81
2021/04/27 15:24:31;;;;;;;3.63;2.05;;;;;;;19.25;37.17;100985.72;6327527;22;20473;-80
2021/04/27 15:33:05;;;;;;;2.95;2.40;;;;;;;19.24;36.78;100983.97;6390869;22;20435;-82
2021/04/27 15:39:06;;;;;;;4.90;2.50;;;;;;;19.10;36.38;100988.53;6358192;22;20118;-88
2021/04/27 15:41:41;;;;;;;3.55;2.15;;;;;;;19.10;36.94;100980.69;6350601;22;20015;-82
2021/04/27 15:51:51;;;;;;;2.67;2.22;;;;;;;19.18;36.56;100983.19;6360490;22;20033;-82
2021/04/27 15:54:24;;;;;;;3.03;2.00;;;;;;;19.19;36.96;100980.56;6337860;22;19995;-87
2021/04/27 15:59:24;;;;;;;3.08;2.00;;;;;;;19.26;37.55;100979.59;6360944;22;20801;-91
2021/04/27 16:05:32;;;;;;;3.47;2.20;;;;;;;19.32;36.69;100978.66;6360294;22;20066;-85
2021/04/27 16:07:58;;;;;;;3.75;2.38;;;;;;;19.28;36.87;100972.59;6327991;22;19999;-84
2021/04/27 16:22:34;;;;;;;4.18;2.35;;;;;;;19.38;37.96;100977.69;6392916;22;20021;-88
2021/04/27 16:25:26;;;;;;;5.80;2.55;;;;;;;19.35;37.64;100981.19;6357308;22;20024;-82
2021/04/27 16:34:18;;;;;;;13.15;3.53;;;;;;;19.48;44.58;100972.31;6366846;22;20031;-82
2021/04/27 16:37:00;;;;;;;15.85;3.85;;;;;;;19.59;45.08;100973.91;6333969;22;20006;-81
2021/04/27 16:39:25;;;;;;;11.93;3.80;;;;;;;19.61;42.85;100979.94;6385849;22;20005;-82
2021/04/27 16:47:51;;;;;;;6.53;2.60;;;;;;;19.10;38.68;100971.13;6367317;22;20083;-81
2021/04/27 16:52:58;;;;;;;5.63;3.00;;;;;;;19.03;37.74;100974.72;6375693;22;20043;-85
2021/04/27 16:55:24;;;;;;;6.25;2.70;;;;;;;19.04;38.57;100975.56;6360218;22;20024;-86
2021/04/27 17:00:37;;;;;;;4.70;2.50;;;;;;;19.06;38.16;100969.44;6373361;22;20329;-83
2021/04/27 17:07:05;;;;;;;8.75;2.53;;;;;;;19.01;37.56;100971.25;6395586;22;20052;-84
2021/04/27 17:29:38;;;;;;;5.68;2.50;;;;;;;18.89;36.97;100959.22;6332047;22;20049;-81
2021/04/27 17:44:41;;;;;;;8.00;2.85;;;;;;;18.81;36.37;100952.38;6389693;22;20557;-85
2021/04/27 17:55:22;;;;;;;4.20;2.55;;;;;;;18.79;36.95;100962.84;6345178;22;20090;-84
2021/04/27 17:58:24;;;;;;;4.75;2.72;;;;;;;18.73;36.10;100962.00;6347906;22;20029;-81
2021/04/27 18:04:40;;;;;;;3.63;2.42;;;;;;;18.66;36.53;100967.31;6362924;22;20025;-81
2021/04/27 18:14:35;;;;;;;4.63;2.67;;;;;;;18.65;36.66;100955.16;6388256;22;20029;-82
2021/04/27 18:26:25;;;;;;;3.58;2.50;;;;;;;18.66;36.63;100950.78;6317183;22;20038;-87
2021/04/27 18:32:51;;;;;;;4.53;2.20;;;;;;;18.66;37.49;100950.78;6342606;22;20071;-83
2021/04/27 18:35:28;;;;;;;3.25;2.10;;;;;;;18.68;37.75;100951.63;6331080;22;20011;-82
2021/04/27 18:37:56;;;;;;;3.05;2.42;;;;;;;18.63;37.41;100949.09;6337040;22;20026;-83
2021/04/27 19:24:14;;;;;;;4.10;2.13;;;;;;;18.53;38.25;100959.63;6315114;22;20026;-81
2021/04/27 19:34:29;;;;;;;2.92;2.25;;;;;;;18.58;38.33;100963.94;6394637;22;20013;-80
2021/04/27 20:05:30;;;;;;;3.33;2.05;;;;;;;18.50;38.91;100973.56;6384034;22;20037;-80
2021/04/27 20:07:56;;;;;;;3.17;2.03;;;;;;;18.51;38.05;100964.88;6385475;22;20010;-80
2021/04/27 20:10:23;;;;;;;3.00;2.03;;;;;;;18.54;38.92;100971.81;6335644;22;20112;-80
2021/04/27 20:12:51;;;;;;;3.55;2.10;;;;;;;18.54;38.44;100966.59;6332685;22;20003;-80
2021/04/27 20:15:19;;;;;;;2.97;2.20;;;;;;;18.52;38.85;100966.59;6386411;22;19998;-79
2021/04/27 20:17:45;;;;;;;4.45;2.10;;;;;;;18.56;38.55;100970.03;6386813;22;20021;-80
2021/04/27 20:20:19;;;;;;;3.80;2.08;;;;;;;18.56;39.00;100960.47;6386829;22;20031;-80
2021/04/27 20:22:45;;;;;;;3.65;2.00;;;;;;;18.53;39.05;100963.13;6385619;22;20009;-80
2021/04/27 20:25:24;;;;;;;3.42;2.20;;;;;;;18.51;38.64;100967.50;6389989;22;20006;-80
2021/04/27 20:27:50;;;;;;;2.80;2.00;;;;;;;18.47;38.87;100969.25;6361892;22;20006;-79
2021/04/27 20:33:38;;;;;;;2.33;1.70;;;;;;;18.56;39.05;100965.69;6397710;22;20438;-79
2021/04/27 20:36:10;;;;;;;2.90;2.10;;;;;;;18.56;39.17;100972.66;6384195;22;20010;-79
2021/04/27 20:38:35;;;;;;;2.75;2.00;;;;;;;18.52;39.52;100971.81;6384363;22;20022;-80
2021/04/27 20:41:01;;;;;;;3.28;2.03;;;;;;;18.56;39.36;100972.66;6356348;22;20021;-80
2021/04/27 20:43:28;;;;;;;2.00;1.80;;;;;;;18.50;38.65;100960.53;6383704;22;19998;-80
2021/04/27 20:45:54;;;;;;;2.92;1.88;;;;;;;18.49;38.58;100966.66;6383899;22;20002;-79
2021/04/27 20:48:21;;;;;;;2.28;1.83;;;;;;;18.43;38.79;100972.78;6382860;22;20047;-80
2021/04/27 20:50:50;;;;;;;5.00;2.30;;;;;;;18.43;39.19;100975.38;6382386;22;20425;-79
2021/04/27 20:53:15;;;;;;;3.92;2.40;;;;;;;18.43;38.92;100964.09;6386326;22;20006;-79
2021/04/27 20:55:43;;;;;;;2.58;1.83;;;;;;;18.40;39.33;100969.34;6355564;22;20009;-79
2021/04/27 20:58:10;;;;;;;2.40;1.85;;;;;;;18.42;39.10;100973.66;6382721;22;20051;-80
2021/04/27 21:00:39;;;;;;;2.22;1.85;;;;;;;18.47;39.87;100971.88;6382686;22;20018;-80
2021/04/27 21:03:09;;;;;;;3.38;1.90;;;;;;;18.45;38.94;100980.59;6382045;22;20003;-79
2021/04/27 21:05:36;;;;;;;3.08;2.10;;;;;;;18.43;39.63;100980.59;6383452;22;20018;-79
2021/04/27 21:08:03;;;;;;;2.70;2.15;;;;;;;18.40;39.31;100977.16;6379940;22;20020;-79
2021/04/27 21:10:31;;;;;;;2.95;1.95;;;;;;;18.30;39.11;100982.47;6382984;22;20014;-79
2021/04/27 21:12:57;;;;;;;3.20;2.03;;;;;;;18.19;38.96;100983.47;6356955;22;20368;-79
2021/04/27 21:15:23;;;;;;;4.22;2.00;;;;;;;18.19;39.32;100988.66;6383928;22;20025;-79
2021/04/27 21:21:29;;;;;;;3.42;1.90;;;;;;;18.05;39.16;100992.28;6385918;22;20016;-79
2021/04/27 21:23:57;;;;;;;6.72;2.17;;;;;;;17.97;39.21;100999.28;6384033;22;20010;-79
2021/04/27 21:26:22;;;;;;;4.93;2.03;;;;;;;18.01;39.89;100994.91;6384269;22;19999;-79
2021/04/27 21:28:48;;;;;;;4.95;1.80;;;;;;;18.02;39.56;100996.63;6358162;22;20070;-80
2021/04/27 21:31:15;;;;;;;4.25;2.00;;;;;;;18.04;39.66;100993.13;6383150;22;20010;-79
2021/04/27 21:33:43;;;;;;;4.97;2.00;;;;;;;18.08;39.99;100986.16;6384771;22;20007;-79
2021/04/27 21:36:08;;;;;;;4.72;2.03;;;;;;;18.03;39.92;100995.75;6385141;22;20003;-79
2021/04/27 21:38:44;;;;;;;5.65;2.63;;;;;;;17.95;39.99;100990.63;6385233;22;20009;-79
2021/04/27 21:58:39;;;;;;;2.60;1.90;;;;;;;17.97;40.55;100998.41;6383566;22;20071;-78
2021/04/27 22:33:46;;;;;;;6.22;2.50;;;;;;;17.78;41.17;100989.84;6291184;22;19937;-80
2021/04/27 22:36:13;;;;;;;4.60;2.20;;;;;;;17.75;41.27;100990.75;6354626;22;20036;-80
2021/04/27 22:38:40;;;;;;;3.50;1.88;;;;;;;17.78;41.61;100985.50;6359008;22;20012;-80
2021/04/27 22:41:05;;;;;;;4.03;2.05;;;;;;;17.74;41.60;100981.19;6357263;22;20016;-80
2021/04/27 22:43:31;;;;;;;4.40;2.33;;;;;;;17.70;41.67;100982.09;6358207;22;20022;-81
2021/04/27 22:45:58;;;;;;;2.80;2.00;;;;;;;17.71;41.81;100983.84;6360486;22;19996;-80
2021/04/27 22:48:24;;;;;;;4.30;2.00;;;;;;;17.74;42.00;100983.81;6360868;22;20081;-80
2021/04/27 22:50:50;;;;;;;3.17;2.20;;;;;;;17.75;41.54;100975.13;6361082;22;20028;-80
2021/04/27 22:53:16;;;;;;;4.72;2.00;;;;;;;17.74;41.74;100982.94;6335616;22;20006;-79
2021/04/27 22:55:43;;;;;;;2.90;2.28;;;;;;;17.68;41.73;100974.31;6383465;22;20010;-80
2021/04/27 22:58:09;;;;;;;3.47;2.00;;;;;;;17.66;42.10;100970.88;6358831;22;20017;-80